createdAt,value
2017-12-25T00:00:47.419Z,2.00
2017-12-25T00:03:13.341Z,2.10
2017-12-25T00:05:39.250Z,2.30
2017-12-25T00:08:05.162Z,2.33
2017-12-25T00:10:31.085Z,2.10
2017-12-25T00:12:56.986Z,2.30
2017-12-25T00:15:22.984Z,1.80
2017-12-25T00:17:48.953Z,2.30
2017-12-25T00:20:14.879Z,2.00
2017-12-25T00:22:40.778Z,2.10
2017-12-25T00:25:06.694Z,2.30
2017-12-25T00:27:32.689Z,1.80
2017-12-25T00:29:59.109Z,2.00
2017-12-25T00:32:25.168Z,2.50
2017-12-25T00:34:51.127Z,1.70
2017-12-25T00:37:17.112Z,2.60
2017-12-25T00:39:43.271Z,2.03
2017-12-25T00:42:09.192Z,2.00
2017-12-25T00:44:35.195Z,2.00
2017-12-25T00:47:01.143Z,2.20
2017-12-25T00:49:27.326Z,1.60
2017-12-25T00:51:53.251Z,1.77
2017-12-25T00:54:19.190Z,2.07
2017-12-25T00:56:45.106Z,2.40
2017-12-25T00:59:11.096Z,2.00
2017-12-25T01:01:37.018Z,2.30
2017-12-25T01:04:03.010Z,2.00
2017-12-25T01:06:29.630Z,2.50
2017-12-25T01:08:55.573Z,2.37
2017-12-25T01:11:21.584Z,2.63
2017-12-25T01:13:48.708Z,3.27
2017-12-25T01:16:14.681Z,3.00
2017-12-25T01:18:40.691Z,2.97
2017-12-25T01:21:06.674Z,2.90
2017-12-25T01:23:32.678Z,3.40
2017-12-25T01:25:58.612Z,3.27
2017-12-25T01:28:24.551Z,3.40
2017-12-25T01:30:50.559Z,2.87
2017-12-25T01:33:16.485Z,2.90
2017-12-25T01:35:42.483Z,3.50
2017-12-25T01:38:08.411Z,3.20
2017-12-25T01:40:34.379Z,3.30
2017-12-25T01:43:01.090Z,2.97
2017-12-25T01:45:27.041Z,3.50
2017-12-25T01:47:52.970Z,3.13
2017-12-25T01:50:18.878Z,3.30
2017-12-25T01:52:44.822Z,3.00
2017-12-25T01:55:11.641Z,3.40
2017-12-25T01:57:43.781Z,3.33
2017-12-25T02:00:15.689Z,3.60
2017-12-25T02:02:43.582Z,3.00
2017-12-25T02:05:12.449Z,3.20
2017-12-25T02:07:50.673Z,3.33
2017-12-25T02:10:16.722Z,3.20
2017-12-25T02:12:42.892Z,3.00
2017-12-25T02:15:08.861Z,3.10
2017-12-25T02:17:34.857Z,3.43
2017-12-25T02:20:00.808Z,3.10
2017-12-25T02:22:26.735Z,2.87
2017-12-25T02:24:53.431Z,3.33
2017-12-25T02:27:19.383Z,3.00
2017-12-25T02:29:45.373Z,3.17
2017-12-25T02:32:11.321Z,2.67
2017-12-25T02:34:37.396Z,3.17
2017-12-25T02:37:03.317Z,2.93
2017-12-25T02:39:29.365Z,3.30
2017-12-25T02:41:55.388Z,3.37
2017-12-25T02:44:21.343Z,3.13
2017-12-25T02:46:48.348Z,2.80
2017-12-25T02:49:14.560Z,3.23
2017-12-25T02:51:40.619Z,3.23
2017-12-25T02:54:06.628Z,3.03
2017-12-25T02:56:33.356Z,3.30
2017-12-25T02:58:59.274Z,3.50
2017-12-25T03:01:25.295Z,2.67
2017-12-25T03:03:51.207Z,2.90
2017-12-25T03:06:17.172Z,3.00
2017-12-25T03:08:43.127Z,2.30
2017-12-25T03:11:09.066Z,3.00
2017-12-25T03:13:35.788Z,2.83
2017-12-25T03:16:01.744Z,2.40
2017-12-25T03:18:27.934Z,2.50
2017-12-25T03:20:53.890Z,2.37
2017-12-25T03:23:19.884Z,2.77
2017-12-25T03:25:46.562Z,2.77
2017-12-25T03:28:12.551Z,2.60
2017-12-25T03:30:38.495Z,2.67
2017-12-25T03:33:04.411Z,2.70
2017-12-25T03:35:30.397Z,2.30
2017-12-25T03:37:56.385Z,2.40
2017-12-25T03:40:22.329Z,2.30
2017-12-25T03:42:48.236Z,3.00
2017-12-25T03:45:14.166Z,2.23
2017-12-25T03:47:40.096Z,2.43
2017-12-25T03:50:06.001Z,2.60
2017-12-25T03:52:31.886Z,2.47
2017-12-25T03:54:57.798Z,2.27
2017-12-25T03:57:23.701Z,2.40
2017-12-25T03:59:49.651Z,2.30
2017-12-25T04:02:15.718Z,2.10
2017-12-25T04:04:41.644Z,2.43
2017-12-25T04:07:07.583Z,2.50
2017-12-25T04:09:33.487Z,2.17
2017-12-25T04:11:59.412Z,2.27
2017-12-25T04:14:26.126Z,2.53
2017-12-25T04:16:52.065Z,2.37
2017-12-25T04:19:18.759Z,2.53
2017-12-25T04:21:44.707Z,2.50
2017-12-25T04:24:10.626Z,2.50
2017-12-25T04:26:36.592Z,2.70
2017-12-25T04:29:02.567Z,2.23
2017-12-25T04:31:28.490Z,3.13
2017-12-25T04:33:54.735Z,2.50
2017-12-25T04:36:21.405Z,3.33
2017-12-25T04:38:47.333Z,2.30
2017-12-25T04:41:14.027Z,2.50
2017-12-25T04:43:40.713Z,2.50
2017-12-25T04:46:06.607Z,2.43
2017-12-25T04:48:32.581Z,2.83
2017-12-25T04:50:58.513Z,2.40
2017-12-25T04:53:24.486Z,3.00
2017-12-25T04:55:50.398Z,2.30
2017-12-25T04:58:16.316Z,2.57
2017-12-25T05:00:42.235Z,2.50
2017-12-25T05:03:08.151Z,2.60
2017-12-25T05:05:34.120Z,2.00
2017-12-25T05:08:00.118Z,2.47
2017-12-25T05:10:26.042Z,3.10
2017-12-25T05:12:51.992Z,2.60
2017-12-25T05:15:17.912Z,2.70
2017-12-25T05:17:43.878Z,2.40
2017-12-25T05:20:09.853Z,3.50
2017-12-25T05:22:35.902Z,2.30
2017-12-25T05:25:01.851Z,2.40
2017-12-25T05:27:27.796Z,2.60
2017-12-25T05:29:53.741Z,2.30
2017-12-25T05:32:19.725Z,2.60
2017-12-25T05:34:45.667Z,2.60
2017-12-25T05:37:11.586Z,3.10
2017-12-25T05:39:37.615Z,2.37
2017-12-25T05:42:03.868Z,2.30
2017-12-25T05:44:29.814Z,2.70
2017-12-25T05:46:55.775Z,2.80
2017-12-25T05:49:21.695Z,2.00
2017-12-25T05:51:47.604Z,2.37
2017-12-25T05:54:13.538Z,2.90
2017-12-25T05:56:39.459Z,2.70
2017-12-25T05:59:05.571Z,2.70
2017-12-25T06:01:31.496Z,3.10
2017-12-25T06:03:57.555Z,2.47
2017-12-25T06:06:23.787Z,2.80
2017-12-25T06:08:49.699Z,2.80
2017-12-25T06:11:15.619Z,3.27
2017-12-25T06:13:41.637Z,3.07
2017-12-25T06:16:07.617Z,3.33
2017-12-25T06:18:33.593Z,2.87
2017-12-25T06:20:59.530Z,3.30
2017-12-25T06:23:25.471Z,2.70
2017-12-25T06:25:51.413Z,2.90
2017-12-25T06:28:17.379Z,3.10
2017-12-25T06:30:43.302Z,2.70
2017-12-25T06:33:10.763Z,3.00
2017-12-25T06:35:36.781Z,2.60
2017-12-25T06:38:03.455Z,2.63
2017-12-25T06:40:29.416Z,2.50
2017-12-25T06:42:55.324Z,2.40
2017-12-25T06:45:21.308Z,2.40
2017-12-25T06:47:48.039Z,2.30
2017-12-25T06:50:13.950Z,2.13
2017-12-25T06:52:40.655Z,2.07
2017-12-25T06:55:06.611Z,1.90
2017-12-25T06:57:32.591Z,1.87
2017-12-25T06:59:58.539Z,1.70
2017-12-25T07:02:24.562Z,2.10
2017-12-25T07:04:50.483Z,1.80
2017-12-25T07:07:16.433Z,1.90
2017-12-25T07:09:42.372Z,2.20
2017-12-25T07:12:08.324Z,2.00
2017-12-25T07:14:34.243Z,2.00
2017-12-25T07:17:00.881Z,2.37
2017-12-25T07:19:26.855Z,2.10
2017-12-25T07:21:53.453Z,2.03
2017-12-25T07:24:19.388Z,2.33
2017-12-25T07:26:45.388Z,2.20
2017-12-25T07:29:11.368Z,1.90
2017-12-25T07:31:37.383Z,1.90
2017-12-25T07:34:03.288Z,2.40
2017-12-25T07:36:29.989Z,2.23
2017-12-25T07:38:55.970Z,2.33
2017-12-25T07:41:21.895Z,2.40
2017-12-25T07:43:48.825Z,2.10
2017-12-25T07:46:14.751Z,2.00
2017-12-25T07:48:40.687Z,2.27
2017-12-25T07:51:06.663Z,1.70
2017-12-25T07:53:32.607Z,2.00
2017-12-25T07:55:58.511Z,1.93
2017-12-25T07:58:25.228Z,1.70
2017-12-25T08:00:51.146Z,1.80
2017-12-25T08:03:17.094Z,1.50
2017-12-25T08:05:43.130Z,2.03
2017-12-25T08:08:09.942Z,2.30
2017-12-25T08:10:35.909Z,1.90
2017-12-25T08:13:01.872Z,1.87
2017-12-25T08:15:28.799Z,1.60
2017-12-25T08:17:56.759Z,1.70
2017-12-25T08:20:22.764Z,2.00
2017-12-25T08:22:48.674Z,1.57
2017-12-25T08:25:14.608Z,1.70
2017-12-25T08:27:40.611Z,1.53
2017-12-25T08:30:06.627Z,1.63
2017-12-25T08:32:32.578Z,1.50
2017-12-25T08:34:58.689Z,1.50
2017-12-25T08:37:24.651Z,1.60
2017-12-25T08:39:50.589Z,1.57
2017-12-25T08:42:16.552Z,1.60
2017-12-25T08:44:43.292Z,1.50
2017-12-25T08:47:09.428Z,1.57
2017-12-25T08:49:36.096Z,1.63
2017-12-25T08:52:02.135Z,1.70
2017-12-25T08:54:28.136Z,1.70
2017-12-25T08:56:54.056Z,1.90
2017-12-25T08:59:19.990Z,1.50
2017-12-25T09:01:45.883Z,1.50
2017-12-25T09:04:12.183Z,1.63
2017-12-25T09:06:38.115Z,1.50
2017-12-25T09:09:04.035Z,1.60
2017-12-25T09:11:29.963Z,1.70
2017-12-25T09:13:55.883Z,1.90
2017-12-25T09:16:21.894Z,1.80
2017-12-25T09:18:47.812Z,1.80
2017-12-25T09:21:13.830Z,1.60
2017-12-25T09:23:40.007Z,1.53
2017-12-25T09:26:05.986Z,1.70
2017-12-25T09:28:31.948Z,1.80
2017-12-25T09:30:57.920Z,1.47
2017-12-25T09:33:24.393Z,1.80
2017-12-25T09:35:51.506Z,1.90
2017-12-25T09:38:17.461Z,2.43
2017-12-25T09:40:43.439Z,1.83
2017-12-25T09:43:09.386Z,2.23
2017-12-25T09:45:35.685Z,1.83
2017-12-25T09:48:01.830Z,2.43
2017-12-25T09:50:27.833Z,1.97
2017-12-25T09:52:53.722Z,2.00
2017-12-25T09:55:19.691Z,2.10
2017-12-25T09:57:45.632Z,2.57
2017-12-25T10:00:12.478Z,1.83
2017-12-25T10:02:38.398Z,2.13
2017-12-25T10:05:04.323Z,1.70
2017-12-25T10:07:30.312Z,1.97
2017-12-25T10:09:56.256Z,1.80
2017-12-25T10:12:22.255Z,1.73
2017-12-25T10:14:48.190Z,1.80
2017-12-25T10:17:14.103Z,1.60
2017-12-25T10:19:40.031Z,1.97
2017-12-25T10:22:06.051Z,1.53
2017-12-25T10:24:31.992Z,1.70
2017-12-25T10:26:57.997Z,1.60
2017-12-25T10:29:25.585Z,1.50
2017-12-25T10:31:51.700Z,1.50
2017-12-25T10:34:17.647Z,1.90
2017-12-25T10:36:44.237Z,1.70
2017-12-25T10:39:10.189Z,1.93
2017-12-25T10:41:36.097Z,2.00
2017-12-25T10:44:02.023Z,2.23
2017-12-25T10:46:27.962Z,2.30
2017-12-25T10:48:53.905Z,2.30
2017-12-25T10:51:20.579Z,2.23
2017-12-25T10:53:46.639Z,2.67
2017-12-25T10:56:12.561Z,2.60
2017-12-25T10:58:38.693Z,2.80
2017-12-25T11:01:04.617Z,2.70
2017-12-25T11:03:31.654Z,3.00
2017-12-25T11:05:57.616Z,2.87
2017-12-25T11:08:24.273Z,2.90
2017-12-25T11:10:50.246Z,3.17
2017-12-25T11:13:16.363Z,2.50
2017-12-25T11:15:43.074Z,2.87
2017-12-25T11:18:09.029Z,3.20
2017-12-25T11:20:35.017Z,3.10
2017-12-25T11:23:00.945Z,3.20
2017-12-25T11:25:26.888Z,3.13
2017-12-25T11:27:52.810Z,3.30
2017-12-25T11:30:18.724Z,3.23
2017-12-25T11:32:44.724Z,3.60
2017-12-25T11:35:10.642Z,3.80
2017-12-25T11:37:36.563Z,3.60
2017-12-25T11:40:02.581Z,3.57
2017-12-25T11:42:28.575Z,3.10
2017-12-25T11:44:54.492Z,3.73
2017-12-25T11:47:20.446Z,3.53
2017-12-25T11:49:46.492Z,3.27
2017-12-25T11:52:12.423Z,3.30
2017-12-25T11:54:38.412Z,2.73
2017-12-25T11:57:04.338Z,3.47
2017-12-25T11:59:30.565Z,3.27
2017-12-25T12:01:56.622Z,3.53
2017-12-25T12:04:22.556Z,3.00
2017-12-25T12:06:48.460Z,3.80
2017-12-25T12:09:14.406Z,4.07
2017-12-25T12:11:41.296Z,5.13
2017-12-25T12:14:07.250Z,6.20
2017-12-25T12:16:33.455Z,5.13
2017-12-25T12:18:59.762Z,6.40
2017-12-25T12:21:25.698Z,5.30
2017-12-25T12:23:51.630Z,6.23
2017-12-25T12:26:17.550Z,6.20
2017-12-25T12:28:43.437Z,5.97
2017-12-25T12:31:09.367Z,6.53
2017-12-25T12:33:35.299Z,6.70
2017-12-25T12:36:01.207Z,6.60
2017-12-25T12:38:27.156Z,6.50
2017-12-25T12:40:53.822Z,7.60
2017-12-25T12:43:21.362Z,6.67
2017-12-25T12:45:47.354Z,6.67
2017-12-25T12:48:13.396Z,5.73
2017-12-25T12:50:41.154Z,6.50
2017-12-25T12:53:10.247Z,6.37
2017-12-25T12:55:36.189Z,6.80
2017-12-25T12:58:04.369Z,6.00
2017-12-25T13:00:30.678Z,5.40
2017-12-25T13:05:46.028Z,6.83
2017-12-25T13:08:13.194Z,6.10
2017-12-25T13:10:39.431Z,6.17
2017-12-25T13:13:06.552Z,6.90
2017-12-25T13:15:32.488Z,7.00
2017-12-25T13:18:03.683Z,7.00
2017-12-25T13:20:31.479Z,8.07
2017-12-25T13:22:57.478Z,7.57
2017-12-25T13:25:27.925Z,8.00
2017-12-25T13:30:26.209Z,10.50
2017-12-25T13:32:56.009Z,12.17
2017-12-25T13:35:26.444Z,12.43
2017-12-25T13:40:25.532Z,12.57
2017-12-25T13:42:52.707Z,14.00
2017-12-25T13:45:22.231Z,13.73
2017-12-25T13:47:49.203Z,13.80
2017-12-25T13:50:17.892Z,13.00
2017-12-25T13:52:45.646Z,12.90
2017-12-25T13:55:13.471Z,13.40
2017-12-25T13:57:39.521Z,14.30
2017-12-25T14:00:09.918Z,13.80
2017-12-25T14:02:41.704Z,14.20
2017-12-25T14:05:11.052Z,14.50
2017-12-25T14:07:38.191Z,16.10
2017-12-25T14:10:11.300Z,14.90
2017-12-25T14:12:39.950Z,15.30
2017-12-25T14:15:07.871Z,16.03
2017-12-25T14:17:34.664Z,14.83
2017-12-25T14:20:01.101Z,15.13
2017-12-25T14:22:27.979Z,16.20
2017-12-25T14:24:54.270Z,16.53
2017-12-25T14:29:55.220Z,18.40
2017-12-25T14:32:21.142Z,16.40
2017-12-25T14:34:48.028Z,18.23
2017-12-25T14:37:13.974Z,17.87
2017-12-25T14:39:41.867Z,14.97
2017-12-25T14:42:07.834Z,16.70
2017-12-25T14:44:33.765Z,16.77
2017-12-25T14:47:00.099Z,18.67
2017-12-25T14:49:26.077Z,17.83
2017-12-25T14:51:52.933Z,19.80
2017-12-25T14:54:18.884Z,17.37
2017-12-25T14:56:44.863Z,17.00
2017-12-25T14:59:10.825Z,17.40
2017-12-25T15:01:37.552Z,17.83
2017-12-25T15:04:03.495Z,17.80
2017-12-25T15:06:29.470Z,17.13
2017-12-25T15:08:56.139Z,17.37
2017-12-25T15:11:22.072Z,17.73
2017-12-25T15:13:48.277Z,17.97
2017-12-25T15:16:14.219Z,17.20
2017-12-25T15:18:40.140Z,18.07
2017-12-25T15:21:06.171Z,17.60
2017-12-25T15:23:33.260Z,17.07
2017-12-25T15:25:59.207Z,19.23
2017-12-25T15:28:25.120Z,18.40
2017-12-25T15:30:51.161Z,18.30
2017-12-25T15:33:17.371Z,18.30
2017-12-25T15:35:44.132Z,18.33
2017-12-25T15:38:10.071Z,17.50
2017-12-25T15:40:36.051Z,17.97
2017-12-25T15:43:02.226Z,17.67
2017-12-25T15:45:28.157Z,16.50
2017-12-25T15:47:54.107Z,17.30
2017-12-25T15:50:20.057Z,19.60
2017-12-25T15:52:45.979Z,19.47
2017-12-25T15:55:12.385Z,16.50
2017-12-25T15:57:38.358Z,17.83
2017-12-25T16:00:04.488Z,15.33
2017-12-25T16:02:30.481Z,16.73
2017-12-25T16:04:56.438Z,16.37
2017-12-25T16:07:22.415Z,16.73
2017-12-25T16:09:48.331Z,16.43
2017-12-25T16:12:14.251Z,17.40
2017-12-25T16:14:40.215Z,16.40
2017-12-25T16:17:06.156Z,16.63
2017-12-25T16:19:32.125Z,15.80
2017-12-25T16:21:58.035Z,14.77
2017-12-25T16:24:24.012Z,14.47
2017-12-25T16:26:49.983Z,14.90
2017-12-25T16:29:16.029Z,13.50
2017-12-25T16:31:42.143Z,14.33
2017-12-25T16:34:08.181Z,14.50
2017-12-25T16:36:34.220Z,14.70
2017-12-25T16:39:00.220Z,15.90
2017-12-25T16:41:27.164Z,16.03
2017-12-25T16:43:53.159Z,14.33
2017-12-25T16:46:19.118Z,14.53
2017-12-25T16:48:45.147Z,14.20
2017-12-25T16:51:11.148Z,14.70
2017-12-25T16:53:37.165Z,14.73
2017-12-25T16:56:03.167Z,13.33
2017-12-25T16:58:29.810Z,14.43
2017-12-25T17:00:57.292Z,14.23
2017-12-25T17:03:23.388Z,13.47
2017-12-25T17:05:49.351Z,13.77
2017-12-25T17:08:15.292Z,13.53
2017-12-25T17:10:41.414Z,12.83
2017-12-25T17:13:07.418Z,13.90
2017-12-25T17:15:33.376Z,12.73
2017-12-25T17:18:00.047Z,11.93
2017-12-25T17:20:26.184Z,12.33
2017-12-25T17:22:52.128Z,11.87
2017-12-25T17:25:18.087Z,12.40
2017-12-25T17:27:44.766Z,11.67
2017-12-25T17:30:10.738Z,11.90
2017-12-25T17:32:36.683Z,11.30
2017-12-25T17:35:03.775Z,12.53
2017-12-25T17:37:29.723Z,12.93
2017-12-25T17:39:55.640Z,13.00
2017-12-25T17:42:22.486Z,12.27
2017-12-25T17:44:49.166Z,14.60
2017-12-25T17:47:15.100Z,13.23
2017-12-25T17:49:41.472Z,13.47
2017-12-25T17:52:07.391Z,13.30
2017-12-25T17:54:33.370Z,15.17
2017-12-25T17:56:59.368Z,15.43
2017-12-25T17:59:25.430Z,14.67
2017-12-25T18:01:51.380Z,14.20
2017-12-25T18:04:18.120Z,14.03
2017-12-25T18:06:44.101Z,15.83
2017-12-25T18:09:10.152Z,13.97
2017-12-25T18:11:36.155Z,11.63
2017-12-25T18:14:02.098Z,13.70
2017-12-25T18:16:28.089Z,13.13
2017-12-25T18:18:54.041Z,13.70
2017-12-25T18:21:20.000Z,15.43
2017-12-25T18:23:47.005Z,16.30
2017-12-25T18:26:12.986Z,17.80
2017-12-25T18:28:39.168Z,19.20
2017-12-25T18:31:05.862Z,19.30
2017-12-25T18:33:31.891Z,18.70
2017-12-25T18:35:57.921Z,21.33
2017-12-25T18:38:23.884Z,20.73
2017-12-25T18:40:49.898Z,19.33
2017-12-25T18:43:16.631Z,21.10
2017-12-25T18:45:42.640Z,19.23
2017-12-25T18:48:08.907Z,21.97
2017-12-25T18:50:34.851Z,20.20
2017-12-25T18:53:00.779Z,18.60
2017-12-25T18:55:26.712Z,17.20
2017-12-25T18:57:53.198Z,20.57
2017-12-25T19:00:19.915Z,19.53
2017-12-25T19:02:45.922Z,18.50
2017-12-25T19:05:11.946Z,19.40
2017-12-25T19:07:38.099Z,17.50
2017-12-25T19:10:05.006Z,18.40
2017-12-25T19:12:30.960Z,17.53
2017-12-25T19:14:57.149Z,17.83
2017-12-25T19:17:23.087Z,17.73
2017-12-25T19:19:49.019Z,17.10
2017-12-25T19:22:15.151Z,17.27
2017-12-25T19:24:41.107Z,17.33
2017-12-25T19:27:07.051Z,18.90
2017-12-25T19:29:32.993Z,18.83
2017-12-25T19:31:58.907Z,18.97
2017-12-25T19:34:24.835Z,17.13
2017-12-25T19:36:50.804Z,17.47
2017-12-25T19:39:16.802Z,18.90
2017-12-25T19:41:42.737Z,19.10
2017-12-25T19:44:08.675Z,17.73
2017-12-25T19:46:34.595Z,16.80
2017-12-25T19:49:00.554Z,19.10
2017-12-25T19:51:26.502Z,18.87
2017-12-25T19:53:52.456Z,18.73
2017-12-25T19:56:18.375Z,17.53
2017-12-25T19:58:44.304Z,18.80
2017-12-25T20:01:10.289Z,18.07
2017-12-25T20:03:37.026Z,19.20
2017-12-25T20:06:02.988Z,18.90
2017-12-25T20:08:28.926Z,17.97
2017-12-25T20:10:55.091Z,19.03
2017-12-25T20:13:23.243Z,19.43
2017-12-25T20:15:49.184Z,20.70
2017-12-25T20:18:15.626Z,21.13
2017-12-25T20:20:41.572Z,20.73
2017-12-25T20:23:07.523Z,18.47
2017-12-25T20:25:33.469Z,18.93
2017-12-25T20:27:59.422Z,20.60
2017-12-25T20:30:25.349Z,21.43
2017-12-25T20:32:51.311Z,20.43
2017-12-25T20:35:17.211Z,20.67
2017-12-25T20:37:43.110Z,20.83
2017-12-25T20:40:09.095Z,19.57
2017-12-25T20:42:35.099Z,19.80
2017-12-25T20:45:01.082Z,21.73
2017-12-25T20:47:27.024Z,22.00
2017-12-25T20:49:52.994Z,20.10
2017-12-25T20:52:18.925Z,21.07
2017-12-25T20:54:45.607Z,21.70
2017-12-25T20:57:12.481Z,19.37
2017-12-25T20:59:39.224Z,20.13
2017-12-25T21:02:05.144Z,20.60
2017-12-25T21:04:31.984Z,19.63
2017-12-25T21:06:57.937Z,21.40
2017-12-25T21:09:23.880Z,20.17
2017-12-25T21:11:49.802Z,21.10
2017-12-25T21:14:16.698Z,20.90
2017-12-25T21:16:42.739Z,20.13
2017-12-25T21:19:08.662Z,18.37
2017-12-25T21:21:34.663Z,19.53
2017-12-25T21:24:00.608Z,21.13
2017-12-25T21:26:26.546Z,19.80
2017-12-25T21:28:53.257Z,20.90
2017-12-25T21:31:19.255Z,19.17
2017-12-25T21:33:45.290Z,20.27
2017-12-25T21:36:11.347Z,21.13
2017-12-25T21:38:37.302Z,19.90
2017-12-25T21:41:03.263Z,22.50
2017-12-25T21:43:29.202Z,21.67
2017-12-25T21:45:55.231Z,22.20
2017-12-25T21:48:21.190Z,21.47
2017-12-25T21:50:47.115Z,20.60
2017-12-25T21:53:13.056Z,22.17
2017-12-25T21:55:38.953Z,20.87
2017-12-25T21:58:04.931Z,21.40
2017-12-25T22:00:30.838Z,22.47
2017-12-25T22:02:56.735Z,20.70
2017-12-25T22:05:22.696Z,22.67
2017-12-25T22:07:48.621Z,22.57
2017-12-25T22:10:14.587Z,23.17
2017-12-25T22:12:41.111Z,21.17
2017-12-25T22:15:07.089Z,22.07
2017-12-25T22:17:33.884Z,21.63
2017-12-25T22:19:59.918Z,22.33
2017-12-25T22:22:25.857Z,23.53
2017-12-25T22:24:52.553Z,21.10
2017-12-25T22:27:18.475Z,23.60
2017-12-25T22:29:44.391Z,24.43
2017-12-25T22:32:10.314Z,24.17
2017-12-25T22:34:36.299Z,23.20
2017-12-25T22:37:02.230Z,23.47
2017-12-25T22:39:28.183Z,20.93
2017-12-25T22:41:54.120Z,23.80
2017-12-25T22:44:20.787Z,24.80
2017-12-25T22:46:46.706Z,22.37
2017-12-25T22:49:12.630Z,24.87
2017-12-25T22:51:38.550Z,22.07
2017-12-25T22:54:04.473Z,22.70
2017-12-25T22:56:30.410Z,22.70
2017-12-25T22:58:56.357Z,22.40
2017-12-25T23:01:22.310Z,21.13
2017-12-25T23:03:48.288Z,22.10
2017-12-25T23:06:14.307Z,23.03
2017-12-25T23:08:40.247Z,21.30
2017-12-25T23:11:06.164Z,21.63
2017-12-25T23:13:32.327Z,22.43
2017-12-25T23:15:58.278Z,22.30
2017-12-25T23:18:24.218Z,21.67
2017-12-25T23:20:50.180Z,19.87
2017-12-25T23:23:16.847Z,22.80
2017-12-25T23:25:42.806Z,21.90
2017-12-25T23:28:08.795Z,22.23
2017-12-25T23:30:34.746Z,22.40
2017-12-25T23:33:00.664Z,20.43
2017-12-25T23:35:26.571Z,22.43
2017-12-25T23:37:52.542Z,21.30
2017-12-25T23:40:18.442Z,23.60
2017-12-25T23:42:44.358Z,21.87
2017-12-25T23:45:10.393Z,21.70
2017-12-25T23:47:36.337Z,24.80
2017-12-25T23:50:02.328Z,21.07
2017-12-25T23:52:28.257Z,21.10
2017-12-25T23:54:54.167Z,23.37
2017-12-25T23:57:20.092Z,20.67
2017-12-25T23:59:46.030Z,21.80
